sensor_id;sensor_type;location;lat;lon;timestamp;P1;durP1;ratioP1;P2;durP2;ratioP2
23668;SDS011;12011;47.422;15.018;2023-03-13T00:01:37;9.90;;;9.66;;
23668;SDS011;12011;47.422;15.018;2023-03-13T00:04:18;10.51;;;10.21;;
23668;SDS011;12011;47.422;15.018;2023-03-13T00:06:49;10.51;;;10.20;;
23668;SDS011;12011;47.422;15.018;2023-03-13T00:09:26;9.19;;;9.00;;
23668;SDS011;12011;47.422;15.018;2023-03-13T00:11:59;9.58;;;9.45;;
23668;SDS011;12011;47.422;15.018;2023-03-13T00:14:34;9.26;;;9.05;;
23668;SDS011;12011;47.422;15.018;2023-03-13T00:17:10;8.44;;;8.28;;
23668;SDS011;12011;47.422;15.018;2023-03-13T00:19:50;7.40;;;7.29;;
23668;SDS011;12011;47.422;15.018;2023-03-13T00:22:20;7.31;;;7.18;;
23668;SDS011;12011;47.422;15.018;2023-03-13T00:24:50;8.51;;;8.34;;
23668;SDS011;12011;47.422;15.018;2023-03-13T00:27:33;11.38;;;11.07;;
23668;SDS011;12011;47.422;15.018;2023-03-13T00:30:06;10.43;;;10.20;;
23668;SDS011;12011;47.422;15.018;2023-03-13T00:32:39;11.18;;;10.99;;
23668;SDS011;12011;47.422;15.018;2023-03-13T00:35:18;12.32;;;11.96;;
23668;SDS011;12011;47.422;15.018;2023-03-13T00:37:48;9.09;;;8.93;;
23668;SDS011;12011;47.422;15.018;2023-03-13T00:40:18;6.91;;;6.78;;
23668;SDS011;12011;47.422;15.018;2023-03-13T00:42:53;9.07;;;8.95;;
23668;SDS011;12011;47.422;15.018;2023-03-13T00:45:24;9.99;;;9.78;;
23668;SDS011;12011;47.422;15.018;2023-03-13T00:47:57;9.92;;;9.75;;
23668;SDS011;12011;47.422;15.018;2023-03-13T00:50:30;9.34;;;9.21;;
23668;SDS011;12011;47.422;15.018;2023-03-13T00:53:03;6.66;;;6.54;;
23668;SDS011;12011;47.422;15.018;2023-03-13T00:55:49;7.17;;;7.10;;
23668;SDS011;12011;47.422;15.018;2023-03-13T00:58:27;8.97;;;8.83;;
23668;SDS011;12011;47.422;15.018;2023-03-13T01:01:07;6.88;;;6.69;;
23668;SDS011;12011;47.422;15.018;2023-03-13T01:03:47;7.49;;;7.27;;
23668;SDS011;12011;47.422;15.018;2023-03-13T01:06:29;6.95;;;6.79;;
23668;SDS011;12011;47.422;15.018;2023-03-13T01:09:06;7.14;;;6.95;;
23668;SDS011;12011;47.422;15.018;2023-03-13T01:11:42;7.76;;;7.65;;
23668;SDS011;12011;47.422;15.018;2023-03-13T01:14:19;7.83;;;7.65;;
23668;SDS011;12011;47.422;15.018;2023-03-13T01:16:53;8.23;;;8.08;;
23668;SDS011;12011;47.422;15.018;2023-03-13T01:19:24;8.28;;;8.17;;
23668;SDS011;12011;47.422;15.018;2023-03-13T01:22:04;6.98;;;6.88;;
23668;SDS011;12011;47.422;15.018;2023-03-13T01:24:44;6.89;;;6.81;;
23668;SDS011;12011;47.422;15.018;2023-03-13T01:27:18;6.90;;;6.82;;
23668;SDS011;12011;47.422;15.018;2023-03-13T01:29:54;7.53;;;7.39;;
23668;SDS011;12011;47.422;15.018;2023-03-13T01:32:36;7.17;;;7.01;;
23668;SDS011;12011;47.422;15.018;2023-03-13T01:35:08;8.99;;;8.88;;
23668;SDS011;12011;47.422;15.018;2023-03-13T01:37:58;9.75;;;9.56;;
23668;SDS011;12011;47.422;15.018;2023-03-13T01:40:32;8.69;;;8.47;;
23668;SDS011;12011;47.422;15.018;2023-03-13T01:43:12;7.97;;;7.75;;
23668;SDS011;12011;47.422;15.018;2023-03-13T01:45:58;7.74;;;7.62;;
23668;SDS011;12011;47.422;15.018;2023-03-13T01:48:51;8.40;;;8.20;;
23668;SDS011;12011;47.422;15.018;2023-03-13T01:51:41;7.67;;;7.63;;
23668;SDS011;12011;47.422;15.018;2023-03-13T01:54:26;7.65;;;7.53;;
23668;SDS011;12011;47.422;15.018;2023-03-13T01:57:08;7.85;;;7.68;;
23668;SDS011;12011;47.422;15.018;2023-03-13T01:59:54;8.11;;;7.93;;
23668;SDS011;12011;47.422;15.018;2023-03-13T02:02:43;8.90;;;8.71;;
23668;SDS011;12011;47.422;15.018;2023-03-13T02:05:18;8.64;;;8.33;;
23668;SDS011;12011;47.422;15.018;2023-03-13T02:07:59;7.62;;;7.39;;
23668;SDS011;12011;47.422;15.018;2023-03-13T02:10:55;7.25;;;7.11;;
23668;SDS011;12011;47.422;15.018;2023-03-13T02:13:46;6.29;;;6.13;;
23668;SDS011;12011;47.422;15.018;2023-03-13T02:16:20;6.38;;;6.28;;
23668;SDS011;12011;47.422;15.018;2023-03-13T02:18:56;6.37;;;6.29;;
23668;SDS011;12011;47.422;15.018;2023-03-13T02:21:49;5.86;;;5.80;;
23668;SDS011;12011;47.422;15.018;2023-03-13T02:24:34;5.88;;;5.82;;
23668;SDS011;12011;47.422;15.018;2023-03-13T02:27:18;5.87;;;5.82;;
23668;SDS011;12011;47.422;15.018;2023-03-13T02:29:56;6.75;;;6.64;;
23668;SDS011;12011;47.422;15.018;2023-03-13T02:32:30;8.09;;;7.84;;
23668;SDS011;12011;47.422;15.018;2023-03-13T02:35:03;7.71;;;7.37;;
23668;SDS011;12011;47.422;15.018;2023-03-13T02:37:42;6.68;;;6.53;;
23668;SDS011;12011;47.422;15.018;2023-03-13T02:40:27;7.26;;;7.15;;
23668;SDS011;12011;47.422;15.018;2023-03-13T02:43:07;6.60;;;6.47;;
23668;SDS011;12011;47.422;15.018;2023-03-13T02:46:04;6.35;;;6.16;;
23668;SDS011;12011;47.422;15.018;2023-03-13T02:48:45;5.88;;;5.74;;
23668;SDS011;12011;47.422;15.018;2023-03-13T02:51:21;5.49;;;5.40;;
23668;SDS011;12011;47.422;15.018;2023-03-13T02:54:03;6.51;;;6.39;;
23668;SDS011;12011;47.422;15.018;2023-03-13T02:56:42;8.25;;;7.97;;
23668;SDS011;12011;47.422;15.018;2023-03-13T02:59:19;8.54;;;8.16;;
23668;SDS011;12011;47.422;15.018;2023-03-13T03:01:50;8.36;;;7.96;;
23668;SDS011;12011;47.422;15.018;2023-03-13T03:04:22;9.05;;;8.55;;
23668;SDS011;12011;47.422;15.018;2023-03-13T03:06:58;9.19;;;8.77;;
23668;SDS011;12011;47.422;15.018;2023-03-13T03:09:31;8.61;;;8.14;;
23668;SDS011;12011;47.422;15.018;2023-03-13T03:12:09;7.61;;;7.28;;
23668;SDS011;12011;47.422;15.018;2023-03-13T03:14:45;7.34;;;7.07;;
23668;SDS011;12011;47.422;15.018;2023-03-13T03:17:17;7.47;;;7.17;;
23668;SDS011;12011;47.422;15.018;2023-03-13T03:19:50;8.23;;;7.82;;
23668;SDS011;12011;47.422;15.018;2023-03-13T03:22:22;7.98;;;7.59;;
23668;SDS011;12011;47.422;15.018;2023-03-13T03:24:54;6.82;;;6.61;;
23668;SDS011;12011;47.422;15.018;2023-03-13T03:27:25;7.09;;;6.88;;
23668;SDS011;12011;47.422;15.018;2023-03-13T03:30:03;6.66;;;6.44;;
23668;SDS011;12011;47.422;15.018;2023-03-13T03:32:37;6.39;;;6.14;;
23668;SDS011;12011;47.422;15.018;2023-03-13T03:35:10;6.42;;;6.27;;
23668;SDS011;12011;47.422;15.018;2023-03-13T03:37:46;6.03;;;5.94;;
23668;SDS011;12011;47.422;15.018;2023-03-13T03:40:26;5.62;;;5.52;;
23668;SDS011;12011;47.422;15.018;2023-03-13T03:42:59;5.78;;;5.67;;
23668;SDS011;12011;47.422;15.018;2023-03-13T03:45:35;5.44;;;5.37;;
23668;SDS011;12011;47.422;15.018;2023-03-13T03:48:13;5.36;;;5.27;;
23668;SDS011;12011;47.422;15.018;2023-03-13T03:50:48;5.36;;;5.29;;
23668;SDS011;12011;47.422;15.018;2023-03-13T03:53:21;5.06;;;4.99;;
23668;SDS011;12011;47.422;15.018;2023-03-13T03:55:55;5.40;;;5.30;;
23668;SDS011;12011;47.422;15.018;2023-03-13T03:58:30;4.91;;;4.82;;
23668;SDS011;12011;47.422;15.018;2023-03-13T04:01:12;5.19;;;5.13;;
23668;SDS011;12011;47.422;15.018;2023-03-13T04:03:44;4.75;;;4.70;;
23668;SDS011;12011;47.422;15.018;2023-03-13T04:06:14;5.06;;;4.99;;
23668;SDS011;12011;47.422;15.018;2023-03-13T04:08:45;4.79;;;4.73;;
23668;SDS011;12011;47.422;15.018;2023-03-13T04:11:30;4.77;;;4.72;;
23668;SDS011;12011;47.422;15.018;2023-03-13T04:13:59;4.87;;;4.81;;
23668;SDS011;12011;47.422;15.018;2023-03-13T04:16:36;4.29;;;4.22;;
23668;SDS011;12011;47.422;15.018;2023-03-13T04:19:09;4.69;;;4.65;;
23668;SDS011;12011;47.422;15.018;2023-03-13T04:21:41;4.52;;;4.47;;
23668;SDS011;12011;47.422;15.018;2023-03-13T04:24:16;4.53;;;4.49;;
23668;SDS011;12011;47.422;15.018;2023-03-13T04:26:49;4.72;;;4.66;;
23668;SDS011;12011;47.422;15.018;2023-03-13T04:29:19;4.88;;;4.81;;
23668;SDS011;12011;47.422;15.018;2023-03-13T04:32:00;4.72;;;4.67;;
23668;SDS011;12011;47.422;15.018;2023-03-13T04:34:53;4.57;;;4.54;;
23668;SDS011;12011;47.422;15.018;2023-03-13T04:38:01;5.06;;;4.99;;
23668;SDS011;12011;47.422;15.018;2023-03-13T04:40:35;5.35;;;5.28;;
23668;SDS011;12011;47.422;15.018;2023-03-13T04:43:23;5.30;;;5.22;;
23668;SDS011;12011;47.422;15.018;2023-03-13T04:46:07;4.60;;;4.52;;
23668;SDS011;12011;47.422;15.018;2023-03-13T04:49:00;4.39;;;4.36;;
23668;SDS011;12011;47.422;15.018;2023-03-13T04:51:44;4.39;;;4.35;;
23668;SDS011;12011;47.422;15.018;2023-03-13T04:54:46;4.79;;;4.71;;
23668;SDS011;12011;47.422;15.018;2023-03-13T04:57:44;5.03;;;4.93;;
23668;SDS011;12011;47.422;15.018;2023-03-13T05:00:43;5.05;;;4.93;;
23668;SDS011;12011;47.422;15.018;2023-03-13T05:03:45;4.81;;;4.71;;
23668;SDS011;12011;47.422;15.018;2023-03-13T05:06:39;5.24;;;5.13;;
23668;SDS011;12011;47.422;15.018;2023-03-13T05:09:29;5.10;;;5.00;;
23668;SDS011;12011;47.422;15.018;2023-03-13T05:12:23;5.29;;;5.14;;
23668;SDS011;12011;47.422;15.018;2023-03-13T05:15:05;5.35;;;5.18;;
23668;SDS011;12011;47.422;15.018;2023-03-13T05:17:58;5.18;;;5.02;;
23668;SDS011;12011;47.422;15.018;2023-03-13T05:20:45;4.55;;;4.46;;
23668;SDS011;12011;47.422;15.018;2023-03-13T05:23:33;3.76;;;3.71;;
23668;SDS011;12011;47.422;15.018;2023-03-13T05:26:25;3.71;;;3.68;;
23668;SDS011;12011;47.422;15.018;2023-03-13T05:29:20;3.83;;;3.81;;
23668;SDS011;12011;47.422;15.018;2023-03-13T05:32:03;4.50;;;4.43;;
23668;SDS011;12011;47.422;15.018;2023-03-13T05:35:10;3.91;;;3.86;;
23668;SDS011;12011;47.422;15.018;2023-03-13T05:38:08;3.64;;;3.60;;
23668;SDS011;12011;47.422;15.018;2023-03-13T05:41:01;4.03;;;4.00;;
23668;SDS011;12011;47.422;15.018;2023-03-13T05:43:50;3.71;;;3.67;;
23668;SDS011;12011;47.422;15.018;2023-03-13T05:46:33;3.78;;;3.75;;
23668;SDS011;12011;47.422;15.018;2023-03-13T05:49:24;3.59;;;3.57;;
23668;SDS011;12011;47.422;15.018;2023-03-13T05:52:01;3.59;;;3.57;;
23668;SDS011;12011;47.422;15.018;2023-03-13T05:54:40;3.61;;;3.57;;
23668;SDS011;12011;47.422;15.018;2023-03-13T05:57:45;3.76;;;3.68;;
23668;SDS011;12011;47.422;15.018;2023-03-13T06:00:32;3.43;;;3.38;;
23668;SDS011;12011;47.422;15.018;2023-03-13T06:03:21;3.46;;;3.43;;
23668;SDS011;12011;47.422;15.018;2023-03-13T06:05:56;3.96;;;3.94;;
23668;SDS011;12011;47.422;15.018;2023-03-13T06:08:36;4.74;;;4.70;;
23668;SDS011;12011;47.422;15.018;2023-03-13T06:11:06;5.70;;;5.60;;
23668;SDS011;12011;47.422;15.018;2023-03-13T06:13:38;3.77;;;3.72;;
23668;SDS011;12011;47.422;15.018;2023-03-13T06:16:18;3.55;;;3.52;;
23668;SDS011;12011;47.422;15.018;2023-03-13T06:18:48;4.08;;;4.02;;
23668;SDS011;12011;47.422;15.018;2023-03-13T06:21:17;4.86;;;4.76;;
23668;SDS011;12011;47.422;15.018;2023-03-13T06:23:47;3.98;;;3.90;;
23668;SDS011;12011;47.422;15.018;2023-03-13T06:26:16;3.67;;;3.63;;
23668;SDS011;12011;47.422;15.018;2023-03-13T06:28:48;3.63;;;3.58;;
23668;SDS011;12011;47.422;15.018;2023-03-13T06:31:18;3.71;;;3.69;;
23668;SDS011;12011;47.422;15.018;2023-03-13T06:33:48;3.86;;;3.83;;
23668;SDS011;12011;47.422;15.018;2023-03-13T06:36:22;3.80;;;3.76;;
23668;SDS011;12011;47.422;15.018;2023-03-13T06:38:52;3.93;;;3.89;;
23668;SDS011;12011;47.422;15.018;2023-03-13T06:41:21;3.75;;;3.69;;
23668;SDS011;12011;47.422;15.018;2023-03-13T06:43:54;4.07;;;3.99;;
23668;SDS011;12011;47.422;15.018;2023-03-13T06:46:24;3.52;;;3.45;;
23668;SDS011;12011;47.422;15.018;2023-03-13T06:48:53;3.19;;;3.14;;
23668;SDS011;12011;47.422;15.018;2023-03-13T06:51:23;2.85;;;2.82;;
23668;SDS011;12011;47.422;15.018;2023-03-13T06:53:53;3.05;;;3.03;;
23668;SDS011;12011;47.422;15.018;2023-03-13T06:56:22;3.41;;;3.40;;
23668;SDS011;12011;47.422;15.018;2023-03-13T06:58:54;3.42;;;3.40;;
23668;SDS011;12011;47.422;15.018;2023-03-13T07:01:24;3.60;;;3.58;;
23668;SDS011;12011;47.422;15.018;2023-03-13T07:03:53;3.68;;;3.66;;
23668;SDS011;12011;47.422;15.018;2023-03-13T07:06:23;3.62;;;3.59;;
23668;SDS011;12011;47.422;15.018;2023-03-13T07:08:52;3.72;;;3.69;;
23668;SDS011;12011;47.422;15.018;2023-03-13T07:11:22;4.11;;;4.07;;
23668;SDS011;12011;47.422;15.018;2023-03-13T07:13:55;3.23;;;3.19;;
23668;SDS011;12011;47.422;15.018;2023-03-13T07:16:26;3.49;;;3.44;;
23668;SDS011;12011;47.422;15.018;2023-03-13T07:18:56;3.52;;;3.50;;
23668;SDS011;12011;47.422;15.018;2023-03-13T07:21:25;3.47;;;3.47;;
23668;SDS011;12011;47.422;15.018;2023-03-13T07:23:55;3.83;;;3.80;;
23668;SDS011;12011;47.422;15.018;2023-03-13T07:26:24;3.47;;;3.43;;
23668;SDS011;12011;47.422;15.018;2023-03-13T07:28:57;3.08;;;3.05;;
23668;SDS011;12011;47.422;15.018;2023-03-13T07:31:26;3.66;;;3.63;;
23668;SDS011;12011;47.422;15.018;2023-03-13T07:33:58;3.82;;;3.79;;
23668;SDS011;12011;47.422;15.018;2023-03-13T07:36:27;3.78;;;3.76;;
23668;SDS011;12011;47.422;15.018;2023-03-13T07:38:59;3.75;;;3.72;;
23668;SDS011;12011;47.422;15.018;2023-03-13T07:41:29;3.86;;;3.83;;
23668;SDS011;12011;47.422;15.018;2023-03-13T07:44:01;3.73;;;3.69;;
23668;SDS011;12011;47.422;15.018;2023-03-13T07:46:30;4.45;;;4.44;;
23668;SDS011;12011;47.422;15.018;2023-03-13T07:49:00;4.96;;;4.93;;
23668;SDS011;12011;47.422;15.018;2023-03-13T07:51:29;4.31;;;4.30;;
23668;SDS011;12011;47.422;15.018;2023-03-13T07:53:58;3.94;;;3.91;;
23668;SDS011;12011;47.422;15.018;2023-03-13T07:56:28;4.24;;;4.19;;
23668;SDS011;12011;47.422;15.018;2023-03-13T07:59:00;4.60;;;4.56;;
23668;SDS011;12011;47.422;15.018;2023-03-13T08:01:30;4.37;;;4.33;;
23668;SDS011;12011;47.422;15.018;2023-03-13T08:03:59;4.32;;;4.29;;
23668;SDS011;12011;47.422;15.018;2023-03-13T08:06:30;3.94;;;3.89;;
23668;SDS011;12011;47.422;15.018;2023-03-13T08:09:04;3.82;;;3.77;;
23668;SDS011;12011;47.422;15.018;2023-03-13T08:11:33;3.81;;;3.79;;
23668;SDS011;12011;47.422;15.018;2023-03-13T08:14:05;4.00;;;3.99;;
23668;SDS011;12011;47.422;15.018;2023-03-13T08:16:36;3.87;;;3.86;;
23668;SDS011;12011;47.422;15.018;2023-03-13T08:19:05;4.79;;;4.79;;
23668;SDS011;12011;47.422;15.018;2023-03-13T08:21:35;4.67;;;4.66;;
23668;SDS011;12011;47.422;15.018;2023-03-13T08:24:06;4.77;;;4.74;;
23668;SDS011;12011;47.422;15.018;2023-03-13T08:26:39;4.90;;;4.83;;
23668;SDS011;12011;47.422;15.018;2023-03-13T08:29:12;5.00;;;4.93;;
23668;SDS011;12011;47.422;15.018;2023-03-13T08:31:43;5.05;;;5.01;;
23668;SDS011;12011;47.422;15.018;2023-03-13T08:34:16;4.99;;;4.95;;
23668;SDS011;12011;47.422;15.018;2023-03-13T08:36:46;4.44;;;4.39;;
23668;SDS011;12011;47.422;15.018;2023-03-13T08:39:18;4.45;;;4.41;;
23668;SDS011;12011;47.422;15.018;2023-03-13T08:41:48;5.60;;;5.55;;
23668;SDS011;12011;47.422;15.018;2023-03-13T08:44:20;5.62;;;5.54;;
23668;SDS011;12011;47.422;15.018;2023-03-13T08:46:50;5.27;;;5.21;;
23668;SDS011;12011;47.422;15.018;2023-03-13T08:49:19;5.70;;;5.66;;
23668;SDS011;12011;47.422;15.018;2023-03-13T08:51:48;5.13;;;5.08;;
23668;SDS011;12011;47.422;15.018;2023-03-13T08:54:18;4.70;;;4.69;;
23668;SDS011;12011;47.422;15.018;2023-03-13T08:56:47;4.40;;;4.38;;
23668;SDS011;12011;47.422;15.018;2023-03-13T08:59:17;4.15;;;4.09;;
23668;SDS011;12011;47.422;15.018;2023-03-13T09:01:49;3.86;;;3.81;;
23668;SDS011;12011;47.422;15.018;2023-03-13T09:04:18;3.59;;;3.55;;
23668;SDS011;12011;47.422;15.018;2023-03-13T09:06:48;3.90;;;3.88;;
23668;SDS011;12011;47.422;15.018;2023-03-13T09:09:17;3.84;;;3.83;;
23668;SDS011;12011;47.422;15.018;2023-03-13T09:11:47;3.70;;;3.70;;
23668;SDS011;12011;47.422;15.018;2023-03-13T09:14:16;3.83;;;3.82;;
23668;SDS011;12011;47.422;15.018;2023-03-13T09:16:48;4.33;;;4.31;;
23668;SDS011;12011;47.422;15.018;2023-03-13T09:19:17;4.06;;;4.05;;
23668;SDS011;12011;47.422;15.018;2023-03-13T09:21:47;3.99;;;3.98;;
23668;SDS011;12011;47.422;15.018;2023-03-13T09:24:16;3.67;;;3.66;;
23668;SDS011;12011;47.422;15.018;2023-03-13T09:26:46;3.67;;;3.67;;
23668;SDS011;12011;47.422;15.018;2023-03-13T09:29:15;3.31;;;3.29;;
23668;SDS011;12011;47.422;15.018;2023-03-13T09:31:47;3.42;;;3.41;;
23668;SDS011;12011;47.422;15.018;2023-03-13T09:34:16;3.31;;;3.30;;
23668;SDS011;12011;47.422;15.018;2023-03-13T09:36:47;3.37;;;3.37;;
23668;SDS011;12011;47.422;15.018;2023-03-13T09:39:17;3.08;;;3.06;;
23668;SDS011;12011;47.422;15.018;2023-03-13T09:41:48;3.75;;;3.75;;
23668;SDS011;12011;47.422;15.018;2023-03-13T09:44:28;3.90;;;3.90;;
23668;SDS011;12011;47.422;15.018;2023-03-13T09:47:08;3.85;;;3.85;;
23668;SDS011;12011;47.422;15.018;2023-03-13T09:49:47;3.28;;;3.26;;
23668;SDS011;12011;47.422;15.018;2023-03-13T09:52:25;2.87;;;2.87;;
23668;SDS011;12011;47.422;15.018;2023-03-13T09:55:01;2.63;;;2.62;;
23668;SDS011;12011;47.422;15.018;2023-03-13T09:57:41;2.67;;;2.67;;
23668;SDS011;12011;47.422;15.018;2023-03-13T10:00:21;2.60;;;2.60;;
23668;SDS011;12011;47.422;15.018;2023-03-13T10:02:59;2.54;;;2.54;;
23668;SDS011;12011;47.422;15.018;2023-03-13T10:05:36;3.01;;;3.01;;
23668;SDS011;12011;47.422;15.018;2023-03-13T10:08:09;3.00;;;3.00;;
23668;SDS011;12011;47.422;15.018;2023-03-13T10:10:45;2.82;;;2.82;;
23668;SDS011;12011;47.422;15.018;2023-03-13T10:13:25;2.82;;;2.82;;
23668;SDS011;12011;47.422;15.018;2023-03-13T10:16:04;3.04;;;3.04;;
23668;SDS011;12011;47.422;15.018;2023-03-13T10:18:41;2.87;;;2.87;;
23668;SDS011;12011;47.422;15.018;2023-03-13T10:21:17;2.71;;;2.71;;
23668;SDS011;12011;47.422;15.018;2023-03-13T10:23:50;2.92;;;2.92;;
23668;SDS011;12011;47.422;15.018;2023-03-13T10:26:28;2.81;;;2.80;;
23668;SDS011;12011;47.422;15.018;2023-03-13T10:29:04;2.97;;;2.96;;
23668;SDS011;12011;47.422;15.018;2023-03-13T10:31:51;2.99;;;2.98;;
23668;SDS011;12011;47.422;15.018;2023-03-13T10:34:32;2.81;;;2.80;;
23668;SDS011;12011;47.422;15.018;2023-03-13T10:37:27;2.79;;;2.79;;
23668;SDS011;12011;47.422;15.018;2023-03-13T10:40:11;2.77;;;2.76;;
23668;SDS011;12011;47.422;15.018;2023-03-13T10:42:49;3.24;;;3.23;;
23668;SDS011;12011;47.422;15.018;2023-03-13T10:45:21;3.19;;;3.17;;
23668;SDS011;12011;47.422;15.018;2023-03-13T10:47:59;2.85;;;2.84;;
23668;SDS011;12011;47.422;15.018;2023-03-13T10:50:46;2.94;;;2.94;;
23668;SDS011;12011;47.422;15.018;2023-03-13T10:53:23;3.20;;;3.19;;
23668;SDS011;12011;47.422;15.018;2023-03-13T10:56:07;3.07;;;3.05;;
23668;SDS011;12011;47.422;15.018;2023-03-13T10:58:43;3.00;;;2.99;;
23668;SDS011;12011;47.422;15.018;2023-03-13T11:01:19;2.86;;;2.85;;
23668;SDS011;12011;47.422;15.018;2023-03-13T11:03:58;3.13;;;3.12;;
23668;SDS011;12011;47.422;15.018;2023-03-13T11:06:57;2.99;;;2.99;;
23668;SDS011;12011;47.422;15.018;2023-03-13T11:09:35;3.29;;;3.28;;
23668;SDS011;12011;47.422;15.018;2023-03-13T11:12:11;3.09;;;3.08;;
23668;SDS011;12011;47.422;15.018;2023-03-13T11:14:57;3.00;;;2.99;;
23668;SDS011;12011;47.422;15.018;2023-03-13T11:17:43;3.02;;;3.01;;
23668;SDS011;12011;47.422;15.018;2023-03-13T11:20:25;3.16;;;3.16;;
23668;SDS011;12011;47.422;15.018;2023-03-13T11:25:57;3.41;;;3.40;;
23668;SDS011;12011;47.422;15.018;2023-03-13T11:28:44;2.92;;;2.91;;
23668;SDS011;12011;47.422;15.018;2023-03-13T11:31:34;3.40;;;3.39;;
23668;SDS011;12011;47.422;15.018;2023-03-13T11:34:15;3.02;;;3.01;;
23668;SDS011;12011;47.422;15.018;2023-03-13T11:36:59;3.47;;;3.46;;
23668;SDS011;12011;47.422;15.018;2023-03-13T11:39:43;3.34;;;3.34;;
23668;SDS011;12011;47.422;15.018;2023-03-13T11:42:41;3.08;;;3.08;;
23668;SDS011;12011;47.422;15.018;2023-03-13T11:45:49;3.44;;;3.42;;
23668;SDS011;12011;47.422;15.018;2023-03-13T11:48:47;3.05;;;3.03;;
23668;SDS011;12011;47.422;15.018;2023-03-13T11:51:54;3.06;;;3.05;;
23668;SDS011;12011;47.422;15.018;2023-03-13T11:54:49;3.05;;;3.05;;
23668;SDS011;12011;47.422;15.018;2023-03-13T11:57:47;2.99;;;2.97;;
23668;SDS011;12011;47.422;15.018;2023-03-13T12:00:30;2.38;;;2.37;;
23668;SDS011;12011;47.422;15.018;2023-03-13T12:03:08;2.32;;;2.31;;
23668;SDS011;12011;47.422;15.018;2023-03-13T12:05:50;2.22;;;2.21;;
23668;SDS011;12011;47.422;15.018;2023-03-13T12:08:24;2.57;;;2.56;;
23668;SDS011;12011;47.422;15.018;2023-03-13T12:11:08;2.56;;;2.56;;
23668;SDS011;12011;47.422;15.018;2023-03-13T12:13:58;2.05;;;2.04;;
23668;SDS011;12011;47.422;15.018;2023-03-13T12:16:36;2.09;;;2.09;;
23668;SDS011;12011;47.422;15.018;2023-03-13T12:19:14;2.04;;;2.03;;
23668;SDS011;12011;47.422;15.018;2023-03-13T12:22:02;1.92;;;1.91;;
23668;SDS011;12011;47.422;15.018;2023-03-13T12:24:48;1.73;;;1.72;;
23668;SDS011;12011;47.422;15.018;2023-03-13T12:27:32;1.88;;;1.88;;
23668;SDS011;12011;47.422;15.018;2023-03-13T12:30:13;1.94;;;1.93;;
23668;SDS011;12011;47.422;15.018;2023-03-13T12:33:09;1.92;;;1.92;;
23668;SDS011;12011;47.422;15.018;2023-03-13T12:35:51;2.04;;;2.03;;
23668;SDS011;12011;47.422;15.018;2023-03-13T12:38:33;2.15;;;2.14;;
23668;SDS011;12011;47.422;15.018;2023-03-13T12:41:12;2.46;;;2.46;;
23668;SDS011;12011;47.422;15.018;2023-03-13T12:43:53;2.48;;;2.47;;
23668;SDS011;12011;47.422;15.018;2023-03-13T12:46:32;2.20;;;2.19;;
23668;SDS011;12011;47.422;15.018;2023-03-13T12:49:19;2.28;;;2.28;;
23668;SDS011;12011;47.422;15.018;2023-03-13T12:58:43;2.52;;;2.52;;
23668;SDS011;12011;47.422;15.018;2023-03-13T13:01:26;2.64;;;2.63;;
23668;SDS011;12011;47.422;15.018;2023-03-13T13:04:10;2.45;;;2.44;;
23668;SDS011;12011;47.422;15.018;2023-03-13T13:06:53;2.36;;;2.36;;
23668;SDS011;12011;47.422;15.018;2023-03-13T13:09:27;2.68;;;2.68;;
23668;SDS011;12011;47.422;15.018;2023-03-13T13:12:01;2.51;;;2.51;;
23668;SDS011;12011;47.422;15.018;2023-03-13T13:17:47;2.63;;;2.63;;
23668;SDS011;12011;47.422;15.018;2023-03-13T13:20:28;2.08;;;2.08;;
23668;SDS011;12011;47.422;15.018;2023-03-13T13:23:20;2.09;;;2.09;;
23668;SDS011;12011;47.422;15.018;2023-03-13T13:32:32;2.67;;;2.66;;
23668;SDS011;12011;47.422;15.018;2023-03-13T13:35:22;2.81;;;2.80;;
23668;SDS011;12011;47.422;15.018;2023-03-13T13:46:54;3.08;;;3.06;;
23668;SDS011;12011;47.422;15.018;2023-03-13T13:49:50;3.05;;;3.03;;
23668;SDS011;12011;47.422;15.018;2023-03-13T13:52:32;2.97;;;2.97;;
23668;SDS011;12011;47.422;15.018;2023-03-13T13:55:28;2.73;;;2.73;;
23668;SDS011;12011;47.422;15.018;2023-03-13T13:58:11;2.94;;;2.93;;
23668;SDS011;12011;47.422;15.018;2023-03-13T14:00:47;3.24;;;3.24;;
23668;SDS011;12011;47.422;15.018;2023-03-13T14:03:24;2.78;;;2.78;;
23668;SDS011;12011;47.422;15.018;2023-03-13T14:06:01;3.08;;;3.07;;
23668;SDS011;12011;47.422;15.018;2023-03-13T14:08:43;2.90;;;2.88;;
23668;SDS011;12011;47.422;15.018;2023-03-13T14:11:20;3.33;;;3.31;;
23668;SDS011;12011;47.422;15.018;2023-03-13T14:14:09;2.89;;;2.88;;
23668;SDS011;12011;47.422;15.018;2023-03-13T14:16:43;2.83;;;2.82;;
23668;SDS011;12011;47.422;15.018;2023-03-13T14:19:20;3.00;;;3.00;;
23668;SDS011;12011;47.422;15.018;2023-03-13T14:21:59;3.44;;;3.43;;
23668;SDS011;12011;47.422;15.018;2023-03-13T14:24:30;3.57;;;3.56;;
23668;SDS011;12011;47.422;15.018;2023-03-13T14:27:00;3.40;;;3.40;;
23668;SDS011;12011;47.422;15.018;2023-03-13T14:32:28;3.42;;;3.42;;
23668;SDS011;12011;47.422;15.018;2023-03-13T14:34:57;3.74;;;3.74;;
23668;SDS011;12011;47.422;15.018;2023-03-13T14:37:35;3.37;;;3.37;;
23668;SDS011;12011;47.422;15.018;2023-03-13T14:40:15;3.14;;;3.13;;
23668;SDS011;12011;47.422;15.018;2023-03-13T14:42:53;2.91;;;2.91;;
23668;SDS011;12011;47.422;15.018;2023-03-13T14:45:27;3.14;;;3.13;;
23668;SDS011;12011;47.422;15.018;2023-03-13T14:48:02;3.37;;;3.36;;
23668;SDS011;12011;47.422;15.018;2023-03-13T14:50:41;3.41;;;3.40;;
23668;SDS011;12011;47.422;15.018;2023-03-13T14:53:15;2.80;;;2.79;;
23668;SDS011;12011;47.422;15.018;2023-03-13T14:56:07;2.83;;;2.83;;
23668;SDS011;12011;47.422;15.018;2023-03-13T14:58:43;3.06;;;3.05;;
23668;SDS011;12011;47.422;15.018;2023-03-13T15:01:20;2.87;;;2.87;;
23668;SDS011;12011;47.422;15.018;2023-03-13T15:03:55;2.76;;;2.76;;
23668;SDS011;12011;47.422;15.018;2023-03-13T15:06:24;3.94;;;3.94;;
23668;SDS011;12011;47.422;15.018;2023-03-13T15:11:54;4.14;;;4.14;;
23668;SDS011;12011;47.422;15.018;2023-03-13T15:14:39;4.23;;;4.22;;
23668;SDS011;12011;47.422;15.018;2023-03-13T15:17:12;3.89;;;3.88;;
23668;SDS011;12011;47.422;15.018;2023-03-13T15:19:49;3.77;;;3.75;;
23668;SDS011;12011;47.422;15.018;2023-03-13T15:22:23;3.91;;;3.88;;
23668;SDS011;12011;47.422;15.018;2023-03-13T15:24:58;4.62;;;4.56;;
23668;SDS011;12011;47.422;15.018;2023-03-13T15:27:28;4.40;;;4.38;;
23668;SDS011;12011;47.422;15.018;2023-03-13T15:29:57;3.87;;;3.86;;
23668;SDS011;12011;47.422;15.018;2023-03-13T15:32:27;4.41;;;4.41;;
23668;SDS011;12011;47.422;15.018;2023-03-13T15:35:01;4.23;;;4.23;;
23668;SDS011;12011;47.422;15.018;2023-03-13T15:37:46;3.81;;;3.81;;
23668;SDS011;12011;47.422;15.018;2023-03-13T15:40:19;3.93;;;3.92;;
23668;SDS011;12011;47.422;15.018;2023-03-13T15:42:49;3.92;;;3.91;;
23668;SDS011;12011;47.422;15.018;2023-03-13T15:45:18;3.66;;;3.65;;
23668;SDS011;12011;47.422;15.018;2023-03-13T15:47:48;3.25;;;3.24;;
23668;SDS011;12011;47.422;15.018;2023-03-13T15:50:18;2.89;;;2.86;;
23668;SDS011;12011;47.422;15.018;2023-03-13T15:52:54;2.66;;;2.63;;
23668;SDS011;12011;47.422;15.018;2023-03-13T15:55:27;3.08;;;3.06;;
23668;SDS011;12011;47.422;15.018;2023-03-13T15:57:57;2.98;;;2.97;;
23668;SDS011;12011;47.422;15.018;2023-03-13T16:00:27;3.69;;;3.67;;
23668;SDS011;12011;47.422;15.018;2023-03-13T16:02:56;4.62;;;4.58;;
23668;SDS011;12011;47.422;15.018;2023-03-13T16:05:25;4.25;;;4.23;;
23668;SDS011;12011;47.422;15.018;2023-03-13T16:07:55;4.35;;;4.33;;
23668;SDS011;12011;47.422;15.018;2023-03-13T16:10:27;5.09;;;5.06;;